Time;durP1;ratioP1;P1;durP2;ratioP2;P2;SDS_P1;SDS_P2;PMS_P1;PMS_P2;Temp;Humidity;BMP_temperature;BMP_pressure;BME280_temperature;BME280_humidity;BME280_pressure;Samples;Min_cycle;Max_cycle;Signal;HPM_P1;HPM_P2
2022/04/28 00:00:17;;;;;;;;;;;;;;;3.94;66.97;99423.80;108084;1281;22574;-67
2022/04/28 00:02:44;;;;;;;;;;;;;;;3.86;67.05;99419.35;108289;1281;22539;-71
2022/04/28 00:05:11;;;;;;;;;;;;;;;3.80;67.01;99419.67;108094;1281;22692;-76
2022/04/28 00:07:38;;;;;;;;;;;;;;;3.74;67.04;99422.74;108159;1281;22542;-70
2022/04/28 00:10:06;;;;;;;;;;;;;;;3.68;66.54;99419.96;108127;1281;25468;-69
2022/04/28 00:12:33;;;;;;;;;;;;;;;3.62;66.81;99428.56;108298;1280;22684;-67
2022/04/28 00:15:01;;;;;;;;;;;;;;;3.60;66.15;99428.96;108185;1280;22656;-68
2022/04/28 00:17:28;;;;;;;;;;;;;;;3.57;66.65;99425.07;108066;1281;22553;-77
2022/04/28 00:19:55;;;;;;;;;;;;;;;3.56;67.41;99423.38;108112;1281;22597;-68
2022/04/28 00:22:23;;;;;;;;;;;;;;;3.54;68.00;99424.13;108040;1281;22507;-72
2022/04/28 00:24:50;;;;;;;;;;;;;;;3.50;68.21;99427.50;108066;1281;22581;-68
2022/04/28 00:27:17;;;;;;;;;;;;;;;3.45;68.19;99423.98;108099;1281;22594;-68
2022/04/28 00:29:44;;;;;;;;;;;;;;;3.41;67.99;99427.34;108047;1280;22541;-82
2022/04/28 00:32:11;;;;;;;;;;;;;;;3.38;67.62;99431.39;108123;1280;25715;-68
2022/04/28 00:34:38;;;;;;;;;;;;;;;3.35;67.56;99433.69;108102;1281;22613;-79
2022/04/28 00:37:09;;;;;;;;;;;;;;;3.32;67.72;99436.35;108081;1281;26485;-84
2022/04/28 00:39:38;;;;;;;;;;;;;;;3.28;67.55;99439.55;108065;1281;22772;-82
2022/04/28 00:42:09;;;;;;;;;;;;;;;3.24;67.51;99438.08;108097;1281;22531;-73
2022/04/28 00:44:36;;;;;;;;;;;;;;;3.22;67.51;99439.84;108262;1281;22531;-70
2022/04/28 00:47:04;;;;;;;;;;;;;;;3.22;67.24;99439.35;108321;1280;22694;-87
2022/04/28 00:52:17;;;;;;;;;;;;;;;3.27;67.77;99438.88;108186;1278;22543;-69
2022/04/28 00:54:45;;;;;;;;;;;;;;;3.28;68.58;99436.97;108109;1279;22536;-80
2022/04/28 00:57:12;;;;;;;;;;;;;;;3.28;69.00;99434.21;108111;1280;22526;-69
2022/04/28 00:59:39;;;;;;;;;;;;;;;3.26;69.15;99439.05;108111;1281;22548;-69
2022/04/28 01:02:06;;;;;;;;;;;;;;;3.25;69.05;99433.59;108115;1280;22536;-76
2022/04/28 01:04:33;;;;;;;;;;;;;;;3.23;68.71;99435.35;108103;1279;22561;-84
2022/04/28 01:07:00;;;;;;;;;;;;;;;3.20;68.77;99434.39;108108;1279;22517;-70
2022/04/28 01:09:27;;;;;;;;;;;;;;;3.18;68.48;99432.89;108109;1280;24266;-77
2022/04/28 01:11:54;;;;;;;;;;;;;;;3.14;68.52;99427.63;108129;1279;22521;-72
2022/04/28 01:14:21;;;;;;;;;;;;;;;3.11;68.52;99429.44;108088;1281;22535;-72
2022/04/28 01:16:48;;;;;;;;;;;;;;;3.08;68.42;99427.78;108079;1279;25409;-77
2022/04/28 01:19:14;;;;;;;;;;;;;;;3.05;68.37;99428.55;108206;1280;22548;-69
2022/04/28 01:21:41;;;;;;;;;;;;;;;3.04;68.12;99429.27;108148;1279;26090;-79
2022/04/28 01:24:08;;;;;;;;;;;;;;;3.01;68.36;99426.39;108144;1279;22527;-69
2022/04/28 01:26:36;;;;;;;;;;;;;;;2.98;69.08;99431.77;108174;1279;22569;-74
2022/04/28 01:29:03;;;;;;;;;;;;;;;2.93;69.82;99427.08;108082;1280;22550;-69
2022/04/28 01:31:30;;;;;;;;;;;;;;;2.87;70.02;99427.02;108105;1279;22528;-68
2022/04/28 01:33:57;;;;;;;;;;;;;;;2.82;69.78;99428.17;108104;1279;22545;-69
2022/04/28 01:36:24;;;;;;;;;;;;;;;2.75;69.58;99426.77;108081;1279;22613;-78
2022/04/28 01:38:51;;;;;;;;;;;;;;;2.71;69.50;99427.36;108064;1279;22513;-69
2022/04/28 01:41:18;;;;;;;;;;;;;;;2.67;69.41;99423.69;108095;1279;22606;-71
2022/04/28 01:43:45;;;;;;;;;;;;;;;2.63;69.24;99424.95;108100;1279;22546;-71
2022/04/28 01:46:13;;;;;;;;;;;;;;;2.60;69.18;99423.66;108117;1279;22679;-75
2022/04/28 01:48:40;;;;;;;;;;;;;;;2.58;69.12;99426.44;108147;1279;24472;-71
2022/04/28 01:56:38;;;;;;;;;;;;;;;2.61;70.42;99429.27;108124;1279;22551;-71
2022/04/28 01:59:05;;;;;;;;;;;;;;;2.60;70.74;99429.48;107843;1279;370158;-77
2022/04/28 02:01:32;;;;;;;;;;;;;;;2.58;70.86;99430.59;108132;1279;22597;-75
2022/04/28 02:03:59;;;;;;;;;;;;;;;2.55;70.68;99430.79;107992;1279;22610;-69
2022/04/28 02:06:26;;;;;;;;;;;;;;;2.53;70.44;99431.70;108124;1279;22645;-78
2022/04/28 02:08:53;;;;;;;;;;;;;;;2.50;70.55;99430.40;108155;1279;22527;-69
2022/04/28 02:11:20;;;;;;;;;;;;;;;2.47;70.33;99432.15;108121;1279;22545;-69
2022/04/28 02:13:47;;;;;;;;;;;;;;;2.44;70.37;99431.52;108151;1279;22530;-72
2022/04/28 02:16:13;;;;;;;;;;;;;;;2.45;69.99;99432.90;108091;1279;22534;-69
2022/04/28 02:18:40;;;;;;;;;;;;;;;2.46;70.14;99432.02;108083;1279;24272;-69
2022/04/28 02:21:07;;;;;;;;;;;;;;;2.46;70.61;99430.80;108090;1279;22533;-69
2022/04/28 02:23:34;;;;;;;;;;;;;;;2.46;71.04;99431.67;108120;1279;22569;-69
2022/04/28 02:26:01;;;;;;;;;;;;;;;2.44;71.52;99424.99;108128;1279;22653;-69
2022/04/28 02:28:28;;;;;;;;;;;;;;;2.43;71.44;99429.66;108081;1279;22521;-69
2022/04/28 02:30:55;;;;;;;;;;;;;;;2.40;71.09;99429.73;108081;1277;22556;-68
2022/04/28 02:33:22;;;;;;;;;;;;;;;2.39;70.96;99430.78;108063;1279;22596;-85
2022/04/28 02:35:49;;;;;;;;;;;;;;;2.38;70.89;99431.83;108097;1279;22597;-86
2022/04/28 02:38:16;;;;;;;;;;;;;;;2.35;70.90;99429.98;108101;1279;22618;-69
2022/04/28 02:40:43;;;;;;;;;;;;;;;2.32;70.91;99428.34;108069;1279;22529;-69
2022/04/28 02:43:10;;;;;;;;;;;;;;;2.32;70.43;99427.65;108064;1279;22783;-76
2022/04/28 02:45:37;;;;;;;;;;;;;;;2.32;70.73;99427.14;108092;1279;25317;-68
2022/04/28 02:48:04;;;;;;;;;;;;;;;2.32;71.38;99428.02;108079;1279;25366;-71
2022/04/28 02:50:31;;;;;;;;;;;;;;;2.31;72.04;99427.69;108128;1279;22548;-68
2022/04/28 02:52:58;;;;;;;;;;;;;;;2.30;72.16;99424.94;108071;1279;22576;-69
2022/04/28 02:55:25;;;;;;;;;;;;;;;2.28;71.92;99428.58;108077;1279;22627;-69
2022/04/28 02:57:52;;;;;;;;;;;;;;;2.24;71.73;99434.31;108080;1279;23783;-79
2022/04/28 03:00:19;;;;;;;;;;;;;;;2.16;71.81;99435.86;108109;1279;22542;-86
2022/04/28 03:02:46;;;;;;;;;;;;;;;2.09;71.49;99437.19;108279;1279;22541;-68
2022/04/28 03:05:13;;;;;;;;;;;;;;;2.03;71.40;99434.90;108076;1279;22555;-69
2022/04/28 03:10:46;;;;;;;;;;;;;;;1.98;71.24;99434.64;108035;1279;22519;-69
2022/04/28 03:13:13;;;;;;;;;;;;;;;1.94;71.61;99433.86;108134;1279;22550;-69
2022/04/28 03:15:40;;;;;;;;;;;;;;;1.92;72.29;99436.64;108096;1279;22528;-71
2022/04/28 03:18:07;;;;;;;;;;;;;;;1.90;72.82;99436.15;108104;1279;24264;-77
2022/04/28 03:20:34;;;;;;;;;;;;;;;1.88;72.73;99442.35;108108;1278;23058;-80
2022/04/28 03:23:01;;;;;;;;;;;;;;;1.86;72.62;99447.21;108131;1279;22528;-69
2022/04/28 03:25:28;;;;;;;;;;;;;;;1.84;72.21;99443.46;108130;1279;22803;-75
2022/04/28 03:27:56;;;;;;;;;;;;;;;1.81;72.12;99445.23;108118;1279;22634;-82
2022/04/28 03:30:23;;;;;;;;;;;;;;;1.79;71.88;99446.81;108133;1279;23643;-68
2022/04/28 03:32:50;;;;;;;;;;;;;;;1.78;71.65;99449.23;108103;1279;22658;-81
2022/04/28 03:35:17;;;;;;;;;;;;;;;1.81;71.54;99450.38;108080;1279;22683;-69
2022/04/28 03:37:46;;;;;;;;;;;;;;;1.85;72.00;99447.92;108106;1279;22537;-84
2022/04/28 03:40:14;;;;;;;;;;;;;;;1.88;72.59;99446.47;108105;1279;24272;-72
2022/04/28 03:42:41;;;;;;;;;;;;;;;1.91;73.18;99444.04;108165;1279;24081;-70
2022/04/28 03:45:08;;;;;;;;;;;;;;;1.92;73.36;99449.00;108121;1278;24375;-69
2022/04/28 03:47:36;;;;;;;;;;;;;;;1.94;73.10;99447.26;108171;1279;22505;-69
2022/04/28 03:50:03;;;;;;;;;;;;;;;1.95;72.97;99450.85;108172;1279;24958;-83
2022/04/28 03:52:31;;;;;;;;;;;;;;;1.96;72.78;99456.33;108153;1279;22595;-83
2022/04/28 03:54:58;;;;;;;;;;;;;;;1.95;72.59;99457.02;108153;1279;22569;-68
2022/04/28 03:57:25;;;;;;;;;;;;;;;1.93;72.32;99462.73;108108;1279;24230;-68
2022/04/28 03:59:52;;;;;;;;;;;;;;;1.94;72.34;99462.88;108087;1279;22775;-77
2022/04/28 04:02:19;;;;;;;;;;;;;;;1.97;72.61;99466.77;108131;1279;22604;-78
2022/04/28 04:04:46;;;;;;;;;;;;;;;2.01;73.25;99467.91;108093;1279;22641;-76
2022/04/28 04:07:12;;;;;;;;;;;;;;;2.04;73.75;99470.10;108070;1279;24365;-69
2022/04/28 04:09:39;;;;;;;;;;;;;;;2.07;73.50;99472.77;108053;1279;22645;-68
2022/04/28 04:12:07;;;;;;;;;;;;;;;2.11;73.43;99474.95;108094;1279;24051;-74
2022/04/28 04:14:34;;;;;;;;;;;;;;;2.15;73.06;99477.27;108122;1279;22534;-76
2022/04/28 04:17:00;;;;;;;;;;;;;;;2.15;73.01;99478.46;108031;1279;22528;-77
2022/04/28 04:19:27;;;;;;;;;;;;;;;2.15;72.99;99479.52;108090;1279;22529;-70
2022/04/28 04:21:54;;;;;;;;;;;;;;;2.19;72.74;99478.77;108088;1279;23008;-75
2022/04/28 04:24:21;;;;;;;;;;;;;;;2.22;73.13;99479.39;108093;1279;22533;-69
2022/04/28 04:26:48;;;;;;;;;;;;;;;2.26;73.92;99484.81;108066;1279;22530;-72
2022/04/28 04:29:15;;;;;;;;;;;;;;;2.25;74.40;99485.17;107988;1279;22524;-72
2022/04/28 04:34:27;;;;;;;;;;;;;;;2.22;74.22;99485.08;108040;1279;24079;-68
2022/04/28 04:36:54;;;;;;;;;;;;;;;2.21;74.04;99480.96;108117;1279;25488;-75
2022/04/28 04:39:21;;;;;;;;;;;;;;;2.21;73.86;99481.48;108070;1279;22598;-70
2022/04/28 04:41:48;;;;;;;;;;;;;;;2.28;73.64;99485.98;108060;1279;24427;-69
2022/04/28 04:44:15;;;;;;;;;;;;;;;2.46;74.06;99484.29;108081;1279;22632;-68
2022/04/28 04:46:42;;;;;;;;;;;;;;;2.73;75.47;99489.08;108074;1279;22607;-69
2022/04/28 04:49:09;;;;;;;;;;;;;;;3.03;77.25;99490.52;108039;1279;22606;-69
2022/04/28 04:51:36;;;;;;;;;;;;;;;3.30;77.73;99491.14;108006;1279;22517;-72
2022/04/28 04:54:02;;;;;;;;;;;;;;;3.57;77.50;99490.18;108071;1279;25215;-80
2022/04/28 04:56:29;;;;;;;;;;;;;;;3.88;76.93;99490.64;108111;1279;22525;-74
2022/04/28 04:58:56;;;;;;;;;;;;;;;4.21;76.28;99492.55;108098;1279;22661;-70
2022/04/28 05:01:23;;;;;;;;;;;;;;;4.59;75.84;99493.97;108082;1279;24213;-69
2022/04/28 05:03:50;;;;;;;;;;;;;;;4.96;75.37;99492.94;108089;1279;22566;-80
2022/04/28 05:06:17;;;;;;;;;;;;;;;5.25;74.43;99490.52;108049;1279;22622;-69
2022/04/28 05:08:44;;;;;;;;;;;;;;;5.45;73.74;99488.52;108107;1279;22545;-83
2022/04/28 05:11:10;;;;;;;;;;;;;;;5.63;73.51;99490.56;108023;1279;22561;-70
2022/04/28 05:13:37;;;;;;;;;;;;;;;5.75;72.89;99492.41;108025;1279;22620;-68
2022/04/28 05:16:04;;;;;;;;;;;;;;;5.87;72.59;99495.50;108033;1279;22640;-71
2022/04/28 05:18:31;;;;;;;;;;;;;;;5.98;72.33;99500.16;108169;1279;22534;-72
2022/04/28 05:20:58;;;;;;;;;;;;;;;6.02;72.11;99501.94;108021;1279;22518;-70
2022/04/28 05:23:26;;;;;;;;;;;;;;;6.03;72.21;99503.80;108019;1279;22534;-74
2022/04/28 05:25:53;;;;;;;;;;;;;;;6.05;71.86;99503.58;108065;1279;24097;-81
2022/04/28 05:28:19;;;;;;;;;;;;;;;6.12;71.78;99506.10;107933;1279;22689;-74
2022/04/28 05:30:46;;;;;;;;;;;;;;;6.21;71.55;99509.62;107962;1279;22729;-80
2022/04/28 05:33:13;;;;;;;;;;;;;;;6.32;71.49;99508.52;107992;1279;24358;-75
2022/04/28 05:35:41;;;;;;;;;;;;;;;6.48;71.26;99509.70;107948;1279;22547;-71
2022/04/28 05:38:08;;;;;;;;;;;;;;;6.65;71.19;99508.61;108023;1279;22675;-78
2022/04/28 05:40:37;;;;;;;;;;;;;;;6.84;71.62;99510.16;108029;1279;25582;-74
2022/04/28 05:45:51;;;;;;;;;;;;;;;7.29;70.71;99519.94;108042;1279;25344;-86
2022/04/28 05:48:19;;;;;;;;;;;;;;;7.56;70.55;99518.56;107992;1279;22598;-83
2022/04/28 05:50:46;;;;;;;;;;;;;;;7.84;69.76;99514.48;108019;1279;22675;-83
2022/04/28 05:53:13;;;;;;;;;;;;;;;8.11;68.51;99513.38;107931;1279;22521;-86
2022/04/28 05:55:40;;;;;;;;;;;;;;;8.38;67.91;99510.37;108074;1279;23595;-87
2022/04/28 05:58:07;;;;;;;;;;;;;;;8.64;68.55;99511.65;107975;1279;24398;-78
2022/04/28 06:00:34;;;;;;;;;;;;;;;8.88;68.05;99512.19;108025;1279;22628;-88
2022/04/28 06:03:01;;;;;;;;;;;;;;;9.05;67.98;99515.95;108101;1279;22691;-80
2022/04/28 06:05:28;;;;;;;;;;;;;;;9.20;67.98;99518.04;107935;1279;23070;-74
2022/04/28 06:07:55;;;;;;;;;;;;;;;9.31;67.56;99519.92;107950;1279;22522;-87
2022/04/28 06:10:22;;;;;;;;;;;;;;;9.44;67.24;99522.50;107991;1279;22534;-85
2022/04/28 06:12:49;;;;;;;;;;;;;;;9.53;66.70;99522.58;107985;1279;22567;-86
2022/04/28 06:15:16;;;;;;;;;;;;;;;9.66;66.27;99523.17;107930;1279;22598;-89
2022/04/28 06:17:43;;;;;;;;;;;;;;;9.79;65.39;99521.38;107926;1278;25357;-87
2022/04/28 06:20:10;;;;;;;;;;;;;;;9.96;65.54;99520.66;108009;1279;22709;-77
2022/04/28 06:22:37;;;;;;;;;;;;;;;10.08;65.30;99519.96;108046;1279;22545;-80
2022/04/28 06:25:05;;;;;;;;;;;;;;;10.18;63.79;99518.73;108034;1279;22773;-89
2022/04/28 06:27:31;;;;;;;;;;;;;;;10.34;64.83;99520.41;108034;1279;22592;-91
2022/04/28 06:29:58;;;;;;;;;;;;;;;10.48;62.42;99523.69;108045;1279;22705;-92
2022/04/28 06:32:25;;;;;;;;;;;;;;;10.67;63.76;99522.02;108027;1278;25296;-70
2022/04/28 06:34:52;;;;;;;;;;;;;;;10.84;63.90;99527.06;108086;1279;27604;-88
2022/04/28 06:37:19;;;;;;;;;;;;;;;10.97;63.41;99521.86;108032;1278;25273;-92
2022/04/28 06:39:46;;;;;;;;;;;;;;;11.12;62.46;99523.70;107999;1279;22541;-87
2022/04/28 06:42:12;;;;;;;;;;;;;;;11.24;61.07;99522.48;108059;1279;22540;-88
2022/04/28 06:44:39;;;;;;;;;;;;;;;11.38;61.38;99521.55;108076;1279;22530;-81
2022/04/28 06:47:06;;;;;;;;;;;;;;;11.54;60.81;99523.14;108017;1279;22557;-70
2022/04/28 06:49:34;;;;;;;;;;;;;;;11.70;59.67;99519.11;107997;1279;22552;-73
2022/04/28 06:52:01;;;;;;;;;;;;;;;11.82;57.49;99521.76;108026;1279;22522;-84
2022/04/28 06:54:28;;;;;;;;;;;;;;;11.95;57.59;99522.25;108082;1279;22518;-81
2022/04/28 06:56:55;;;;;;;;;;;;;;;12.10;58.18;99525.44;108103;1279;23060;-69
2022/04/28 06:59:21;;;;;;;;;;;;;;;12.26;57.15;99521.88;108075;1279;24329;-69
2022/04/28 07:01:49;;;;;;;;;;;;;;;12.46;57.54;99524.02;108051;1279;22632;-70
2022/04/28 07:04:15;;;;;;;;;;;;;;;12.64;57.62;99519.80;108050;1279;22534;-75
2022/04/28 07:06:42;;;;;;;;;;;;;;;12.80;56.40;99523.04;108067;1279;27675;-69
2022/04/28 07:09:09;;;;;;;;;;;;;;;12.90;54.75;99524.69;108056;1279;22770;-72
2022/04/28 07:11:36;;;;;;;;;;;;;;;12.98;54.58;99522.84;108113;1279;22881;-71
2022/04/28 07:14:03;;;;;;;;;;;;;;;13.05;51.93;99526.89;108130;1279;23915;-69
2022/04/28 07:16:30;;;;;;;;;;;;;;;13.11;52.54;99527.93;108083;1279;23087;-70
2022/04/28 07:18:56;;;;;;;;;;;;;;;13.22;51.67;99528.88;108010;1279;22531;-68
2022/04/28 07:21:23;;;;;;;;;;;;;;;13.29;51.37;99527.42;108023;1279;22557;-69
2022/04/28 07:23:50;;;;;;;;;;;;;;;13.40;51.44;99525.13;108068;1279;22537;-69
2022/04/28 07:26:17;;;;;;;;;;;;;;;13.52;50.55;99526.29;108035;1279;22579;-69
2022/04/28 07:28:44;;;;;;;;;;;;;;;13.63;51.20;99528.41;108015;1279;22515;-70
2022/04/28 07:31:11;;;;;;;;;;;;;;;13.76;52.06;99532.11;108049;1279;22527;-69
2022/04/28 07:33:38;;;;;;;;;;;;;;;13.89;51.65;99535.97;108038;1279;22576;-70
2022/04/28 07:36:05;;;;;;;;;;;;;;;13.98;52.18;99535.95;108042;1279;22587;-68
2022/04/28 07:38:32;;;;;;;;;;;;;;;13.98;50.17;99539.09;108091;1279;22609;-68
2022/04/28 07:41:02;;;;;;;;;;;;;;;13.95;51.51;99542.80;108094;1279;22530;-69
2022/04/28 07:43:29;;;;;;;;;;;;;;;13.91;50.64;99541.13;108020;1279;22537;-69
2022/04/28 07:45:56;;;;;;;;;;;;;;;13.82;50.06;99544.51;108045;1279;22644;-74
2022/04/28 07:48:23;;;;;;;;;;;;;;;13.78;49.85;99541.23;108067;1279;22522;-71
2022/04/28 07:50:50;;;;;;;;;;;;;;;13.83;50.08;99544.23;108046;1279;25218;-70
2022/04/28 07:53:17;;;;;;;;;;;;;;;13.94;48.57;99544.77;108005;1278;22742;-69
2022/04/28 07:56:10;;;;;;;;;;;;;;;14.08;49.94;99545.79;107970;1279;22524;-85
2022/04/28 07:58:31;;;;;;;;;;;;;;;14.16;48.03;99543.85;108044;1279;22542;-80
2022/04/28 08:00:59;;;;;;;;;;;;;;;14.19;45.54;99544.88;108029;1279;22569;-78
2022/04/28 08:03:26;;;;;;;;;;;;;;;14.22;47.93;99542.55;108005;1279;22496;-69
2022/04/28 08:05:53;;;;;;;;;;;;;;;14.28;47.45;99543.07;108206;1279;22516;-68
2022/04/28 08:08:21;;;;;;;;;;;;;;;14.38;45.81;99546.84;108260;1278;26200;-77
2022/04/28 08:10:48;;;;;;;;;;;;;;;14.46;46.09;99547.35;108136;1279;22490;-80
2022/04/28 08:13:15;;;;;;;;;;;;;;;14.53;46.08;99547.57;108169;1279;22531;-82
2022/04/28 08:15:42;;;;;;;;;;;;;;;14.52;45.68;99552.17;108198;1279;22547;-88
2022/04/28 08:18:09;;;;;;;;;;;;;;;14.52;45.72;99552.20;108182;1279;22606;-83
2022/04/28 08:20:38;;;;;;;;;;;;;;;14.57;44.93;99556.23;108184;1279;24253;-73
2022/04/28 08:23:05;;;;;;;;;;;;;;;14.64;43.17;99555.63;108200;1279;22531;-83
2022/04/28 08:25:32;;;;;;;;;;;;;;;14.68;42.51;99555.52;108336;1279;22513;-84
2022/04/28 08:27:59;;;;;;;;;;;;;;;14.73;42.74;99556.02;108349;1279;27549;-84
2022/04/28 08:30:26;;;;;;;;;;;;;;;14.89;42.88;99548.48;108368;1279;24327;-77
2022/04/28 08:32:52;;;;;;;;;;;;;;;15.12;43.11;99550.52;108341;1279;22628;-80
2022/04/28 08:35:19;;;;;;;;;;;;;;;15.37;42.72;99552.64;108342;1279;22748;-79
2022/04/28 08:37:46;;;;;;;;;;;;;;;15.51;42.22;99551.13;108339;1279;22641;-78
2022/04/28 08:40:13;;;;;;;;;;;;;;;15.60;42.80;99552.95;108336;1279;22541;-74
2022/04/28 08:42:40;;;;;;;;;;;;;;;15.76;43.21;99552.54;108279;1279;22524;-70
2022/04/28 08:45:07;;;;;;;;;;;;;;;15.95;42.42;99553.29;108353;1279;25227;-74
2022/04/28 08:47:34;;;;;;;;;;;;;;;16.06;42.52;99550.70;108316;1279;22541;-76
2022/04/28 08:50:01;;;;;;;;;;;;;;;16.12;43.02;99544.98;108344;1279;22716;-70
2022/04/28 08:52:29;;;;;;;;;;;;;;;16.16;42.97;99550.33;108366;1278;22597;-71
2022/04/28 08:54:56;;;;;;;;;;;;;;;16.18;42.37;99550.34;108377;1279;22544;-71
2022/04/28 08:57:23;;;;;;;;;;;;;;;16.14;41.55;99555.87;108380;1279;25264;-79
2022/04/28 08:59:51;;;;;;;;;;;;;;;16.17;42.49;99547.08;108280;1279;22532;-81
2022/04/28 09:02:27;;;;;;;;;;;;;;;16.32;42.78;99553.48;108335;1279;22686;-74
2022/04/28 09:05:03;;;;;;;;;;;;;;;16.53;42.63;99547.34;108317;1279;22589;-81
2022/04/28 09:07:32;;;;;;;;;;;;;;;16.66;42.46;99549.02;108304;1279;22574;-83
2022/04/28 09:09:59;;;;;;;;;;;;;;;16.64;42.14;99551.14;108326;1279;22552;-83
2022/04/28 09:12:26;;;;;;;;;;;;;;;16.53;42.56;99551.36;108353;1278;22618;-83
2022/04/28 09:14:55;;;;;;;;;;;;;;;16.43;42.41;99551.75;108301;1277;22617;-72
2022/04/28 09:17:22;;;;;;;;;;;;;;;16.34;41.97;99552.67;108309;1279;22543;-83
2022/04/28 09:19:57;;;;;;;;;;;;;;;16.20;42.33;99553.55;108341;1279;22544;-74
2022/04/28 09:22:24;;;;;;;;;;;;;;;16.13;42.28;99552.58;108263;1279;22531;-77
2022/04/28 09:24:55;;;;;;;;;;;;;;;16.05;42.67;99551.61;108228;1279;22520;-82
2022/04/28 09:27:22;;;;;;;;;;;;;;;15.97;42.87;99553.61;108278;1279;22536;-77
2022/04/28 09:29:51;;;;;;;;;;;;;;;15.97;42.53;99555.04;108277;1279;22535;-70
2022/04/28 09:32:20;;;;;;;;;;;;;;;16.09;43.40;99551.65;108233;1279;22540;-84
2022/04/28 09:34:49;;;;;;;;;;;;;;;16.32;43.09;99550.36;108153;1279;22635;-80
2022/04/28 09:37:19;;;;;;;;;;;;;;;16.50;43.09;99546.12;108241;1279;22552;-79
2022/04/28 09:42:41;;;;;;;;;;;;;;;16.67;41.97;99550.56;108257;1279;22655;-87
2022/04/28 09:45:09;;;;;;;;;;;;;;;16.53;41.63;99554.05;108258;1279;25344;-83
2022/04/28 09:47:36;;;;;;;;;;;;;;;16.35;42.22;99556.42;108251;1279;22525;-82
2022/04/28 09:50:16;;;;;;;;;;;;;;;16.17;41.99;99559.55;108257;1279;22533;-79
2022/04/28 09:52:44;;;;;;;;;;;;;;;15.96;42.42;99568.30;108232;1279;22540;-90
2022/04/28 09:55:11;;;;;;;;;;;;;;;15.87;42.64;99564.88;108115;1279;22522;-89
2022/04/28 09:57:39;;;;;;;;;;;;;;;15.79;41.91;99566.14;108206;1279;22538;-90
2022/04/28 10:00:06;;;;;;;;;;;;;;;15.63;41.41;99567.85;108253;1278;25916;-87
2022/04/28 10:02:33;;;;;;;;;;;;;;;15.56;41.89;99568.90;108270;1279;22596;-90
2022/04/28 10:05:01;;;;;;;;;;;;;;;15.60;41.82;99567.54;108270;1279;22528;-91
2022/04/28 10:07:28;;;;;;;;;;;;;;;15.60;41.87;99568.42;108254;1279;22594;-90
2022/04/28 10:09:55;;;;;;;;;;;;;;;15.67;41.76;99563.34;108230;1279;23197;-75
2022/04/28 10:12:25;;;;;;;;;;;;;;;15.78;41.75;99558.35;108229;1279;22610;-75
2022/04/28 10:14:56;;;;;;;;;;;;;;;15.98;42.09;99558.80;108225;1279;22547;-90
2022/04/28 10:17:29;;;;;;;;;;;;;;;16.15;41.47;99556.35;108214;1279;22639;-84
2022/04/28 10:19:58;;;;;;;;;;;;;;;16.22;41.60;99554.59;108245;1279;22534;-86
2022/04/28 10:22:31;;;;;;;;;;;;;;;16.30;41.75;99552.79;108328;1279;22654;-86
2022/04/28 10:33:24;;;;;;;;;;;;;;;16.45;39.58;99549.39;108302;1279;22548;-76
2022/04/28 10:35:53;;;;;;;;;;;;;;;16.62;40.06;99546.69;108334;1279;22608;-86
2022/04/28 10:38:20;;;;;;;;;;;;;;;16.81;40.04;99544.51;108315;1279;22528;-92
2022/04/28 10:41:01;;;;;;;;;;;;;;;17.03;39.24;99537.76;108234;1279;22691;-94
2022/04/28 10:43:34;;;;;;;;;;;;;;;17.23;39.73;99539.30;108277;1278;22553;-70
2022/04/28 10:46:04;;;;;;;;;;;;;;;17.55;39.17;99541.00;108336;1277;22684;-93
2022/04/28 10:48:31;;;;;;;;;;;;;;;17.93;39.35;99540.64;108330;1279;22540;-92
2022/04/28 10:51:06;;;;;;;;;;;;;;;18.21;37.26;99541.15;108328;1279;22533;-82
2022/04/28 10:53:33;;;;;;;;;;;;;;;18.27;36.61;99539.39;108325;1279;25466;-82
2022/04/28 10:56:12;;;;;;;;;;;;;;;18.33;36.62;99538.53;108343;1279;22547;-92
2022/04/28 10:58:39;;;;;;;;;;;;;;;18.38;36.83;99541.13;108330;1279;23810;-81
2022/04/28 11:01:06;;;;;;;;;;;;;;;18.37;35.82;99542.46;108319;1279;22597;-89
2022/04/28 11:03:48;;;;;;;;;;;;;;;18.25;35.49;99537.69;108323;1279;24349;-81
2022/04/28 11:06:18;;;;;;;;;;;;;;;18.22;36.29;99535.09;108334;1279;22608;-72
2022/04/28 11:08:55;;;;;;;;;;;;;;;18.24;35.77;99538.94;108335;1279;22522;-69
2022/04/28 11:11:24;;;;;;;;;;;;;;;18.16;35.14;99542.95;108360;1279;22566;-69
2022/04/28 11:13:58;;;;;;;;;;;;;;;18.05;35.47;99544.45;108320;1279;22473;-80
2022/04/28 11:16:26;;;;;;;;;;;;;;;18.06;34.61;99548.92;108332;1279;22520;-70
2022/04/28 11:18:54;;;;;;;;;;;;;;;17.82;33.55;99549.10;108324;1279;25420;-71
2022/04/28 11:21:22;;;;;;;;;;;;;;;17.82;35.01;99548.89;108333;1279;22552;-70
2022/04/28 11:23:51;;;;;;;;;;;;;;;18.09;33.81;99548.84;108325;1279;22597;-71
2022/04/28 11:26:19;;;;;;;;;;;;;;;18.08;33.99;99550.16;108335;1279;22702;-71
2022/04/28 11:28:47;;;;;;;;;;;;;;;18.26;34.00;99547.61;108369;1279;23319;-73
2022/04/28 11:31:16;;;;;;;;;;;;;;;18.27;33.96;99542.55;108334;1279;25520;-72
2022/04/28 11:33:45;;;;;;;;;;;;;;;18.44;33.30;99545.27;108296;1279;22539;-87
2022/04/28 11:36:18;;;;;;;;;;;;;;;18.42;32.85;99549.30;108295;1279;22525;-89
2022/04/28 11:38:50;;;;;;;;;;;;;;;18.48;33.64;99545.64;108311;1279;22533;-85
2022/04/28 11:41:21;;;;;;;;;;;;;;;18.51;33.94;99544.97;108284;1279;25341;-84
2022/04/28 11:43:49;;;;;;;;;;;;;;;18.58;34.16;99543.18;108309;1278;22560;-82
2022/04/28 11:46:16;;;;;;;;;;;;;;;18.61;34.05;99546.99;108305;1279;22522;-95
2022/04/28 11:48:43;;;;;;;;;;;;;;;18.61;33.31;99546.59;108305;1279;22553;-70
2022/04/28 11:51:10;;;;;;;;;;;;;;;18.49;33.97;99545.39;108083;1279;22541;-70
2022/04/28 11:53:44;;;;;;;;;;;;;;;18.56;34.25;99542.31;108080;1279;25920;-72
2022/04/28 11:56:18;;;;;;;;;;;;;;;18.62;34.68;99538.13;108128;1279;22705;-70
2022/04/28 11:58:46;;;;;;;;;;;;;;;18.78;33.70;99540.50;108007;1279;22624;-72
2022/04/28 12:01:13;;;;;;;;;;;;;;;18.82;33.49;99540.13;108127;1279;22610;-77
2022/04/28 12:03:46;;;;;;;;;;;;;;;18.77;33.00;99540.55;108066;1279;23115;-76
2022/04/28 12:06:14;;;;;;;;;;;;;;;18.54;32.61;99540.33;108081;1279;22515;-84
2022/04/28 12:08:46;;;;;;;;;;;;;;;18.19;32.64;99537.77;108075;1279;22672;-85
2022/04/28 12:19:29;;;;;;;;;;;;;;;17.85;33.86;99530.38;108055;1279;22697;-87
2022/04/28 12:22:03;;;;;;;;;;;;;;;17.87;33.41;99528.42;108038;1279;22512;-84
2022/04/28 12:24:30;;;;;;;;;;;;;;;17.98;33.59;99529.81;108025;1279;22539;-74
2022/04/28 12:27:03;;;;;;;;;;;;;;;18.07;33.69;99531.92;108113;1279;25394;-79
2022/04/28 12:29:30;;;;;;;;;;;;;;;18.28;33.54;99529.48;108115;1278;22552;-70
2022/04/28 12:31:59;;;;;;;;;;;;;;;18.51;32.62;99526.81;108047;1279;22533;-84
2022/04/28 12:34:26;;;;;;;;;;;;;;;18.58;32.94;99527.19;108059;1279;25228;-75
2022/04/28 12:36:57;;;;;;;;;;;;;;;18.64;32.35;99521.87;108046;1279;23224;-92
2022/04/28 12:39:27;;;;;;;;;;;;;;;18.52;32.23;99519.86;108021;1279;22540;-70
2022/04/28 12:41:54;;;;;;;;;;;;;;;18.48;32.82;99521.99;108153;1279;22572;-83
2022/04/28 12:44:24;;;;;;;;;;;;;;;18.41;32.84;99517.40;108062;1279;22607;-88
2022/04/28 12:46:55;;;;;;;;;;;;;;;18.26;33.14;99523.97;108088;1279;24770;-71
2022/04/28 12:49:23;;;;;;;;;;;;;;;18.14;33.32;99520.36;108034;1279;22610;-85
2022/04/28 12:51:55;;;;;;;;;;;;;;;18.07;33.42;99519.72;108020;1279;26770;-91
2022/04/28 12:54:33;;;;;;;;;;;;;;;18.03;33.14;99519.52;108030;1279;23919;-86
2022/04/28 12:57:02;;;;;;;;;;;;;;;17.90;33.32;99518.14;108104;1279;22539;-82
2022/04/28 12:59:36;;;;;;;;;;;;;;;17.82;33.28;99512.27;108325;1279;22524;-86
2022/04/28 13:02:06;;;;;;;;;;;;;;;17.76;33.57;99510.63;108316;1279;22521;-85
2022/04/28 13:04:37;;;;;;;;;;;;;;;17.84;33.91;99508.73;108317;1279;22597;-91
2022/04/28 13:07:08;;;;;;;;;;;;;;;18.01;33.08;99501.58;108290;1279;22609;-88
2022/04/28 13:09:35;;;;;;;;;;;;;;;18.07;32.62;99497.90;108299;1279;22538;-87
2022/04/28 13:12:01;;;;;;;;;;;;;;;18.25;32.83;99499.70;108311;1279;23921;-83
2022/04/28 13:14:28;;;;;;;;;;;;;;;18.36;32.96;99497.55;108367;1279;22683;-79
2022/04/28 13:16:55;;;;;;;;;;;;;;;18.59;32.52;99496.19;108310;1279;22662;-77
2022/04/28 13:19:22;;;;;;;;;;;;;;;18.75;31.91;99499.74;108174;1279;22543;-82